sensor_id;sensor_type;location;lat;lon;timestamp;pressure;altitude;pressure_sealevel;temperature
45850;BMP180;10739;52.198;20.908;2023-09-19T00:00:58;99676.00;;;22.40
45850;BMP180;10739;52.198;20.908;2023-09-19T00:03:24;99670.00;;;22.50
45850;BMP180;10739;52.198;20.908;2023-09-19T00:05:54;99663.00;;;22.40
45850;BMP180;10739;52.198;20.908;2023-09-19T00:08:21;99665.00;;;22.10
45850;BMP180;10739;52.198;20.908;2023-09-19T00:10:50;99663.00;;;22.10
45850;BMP180;10739;52.198;20.908;2023-09-19T00:13:17;99668.00;;;21.70
45850;BMP180;10739;52.198;20.908;2023-09-19T00:15:47;99672.00;;;21.70
45850;BMP180;10739;52.198;20.908;2023-09-19T00:18:19;99663.00;;;21.80
45850;BMP180;10739;52.198;20.908;2023-09-19T00:20:49;99660.00;;;22.20
45850;BMP180;10739;52.198;20.908;2023-09-19T00:23:17;99659.00;;;22.20
45850;BMP180;10739;52.198;20.908;2023-09-19T00:25:45;99662.00;;;22.30
45850;BMP180;10739;52.198;20.908;2023-09-19T00:28:11;99660.00;;;22.30
45850;BMP180;10739;52.198;20.908;2023-09-19T00:30:38;99649.00;;;22.30
45850;BMP180;10739;52.198;20.908;2023-09-19T00:33:07;99657.00;;;22.10
45850;BMP180;10739;52.198;20.908;2023-09-19T00:35:34;99647.00;;;22.00
45850;BMP180;10739;52.198;20.908;2023-09-19T00:38:00;99650.00;;;21.70
45850;BMP180;10739;52.198;20.908;2023-09-19T00:40:27;99651.00;;;22.00
45850;BMP180;10739;52.198;20.908;2023-09-19T00:42:58;99654.00;;;21.70
45850;BMP180;10739;52.198;20.908;2023-09-19T00:45:27;99642.00;;;21.90
45850;BMP180;10739;52.198;20.908;2023-09-19T00:47:57;99643.00;;;21.90
45850;BMP180;10739;52.198;20.908;2023-09-19T00:50:25;99647.00;;;21.60
45850;BMP180;10739;52.198;20.908;2023-09-19T00:52:56;99651.00;;;21.80
45850;BMP180;10739;52.198;20.908;2023-09-19T00:55:25;99646.00;;;21.80
45850;BMP180;10739;52.198;20.908;2023-09-19T00:57:52;99639.00;;;22.20
45850;BMP180;10739;52.198;20.908;2023-09-19T01:00:18;99645.00;;;21.80
45850;BMP180;10739;52.198;20.908;2023-09-19T01:02:46;99634.00;;;22.00
45850;BMP180;10739;52.198;20.908;2023-09-19T01:05:13;99639.00;;;22.00
45850;BMP180;10739;52.198;20.908;2023-09-19T01:07:40;99632.00;;;22.50
45850;BMP180;10739;52.198;20.908;2023-09-19T01:10:10;99628.00;;;22.40
45850;BMP180;10739;52.198;20.908;2023-09-19T01:15:44;99624.00;;;22.10
45850;BMP180;10739;52.198;20.908;2023-09-19T01:30:35;99615.00;;;22.00
45850;BMP180;10739;52.198;20.908;2023-09-19T01:33:06;99607.00;;;22.30
45850;BMP180;10739;52.198;20.908;2023-09-19T01:35:34;99610.00;;;22.30
45850;BMP180;10739;52.198;20.908;2023-09-19T01:38:00;99601.00;;;22.20
45850;BMP180;10739;52.198;20.908;2023-09-19T01:40:27;99598.00;;;22.20
45850;BMP180;10739;52.198;20.908;2023-09-19T01:43:25;99597.00;;;21.60
45850;BMP180;10739;52.198;20.908;2023-09-19T01:48:48;99593.00;;;22.40
45850;BMP180;10739;52.198;20.908;2023-09-19T01:51:51;99597.00;;;21.70
45850;BMP180;10739;52.198;20.908;2023-09-19T01:54:26;99581.00;;;21.80
45850;BMP180;10739;52.198;20.908;2023-09-19T01:59:48;99585.00;;;22.20
45850;BMP180;10739;52.198;20.908;2023-09-19T02:02:18;99585.00;;;22.20
45850;BMP180;10739;52.198;20.908;2023-09-19T02:04:48;99586.00;;;21.60
45850;BMP180;10739;52.198;20.908;2023-09-19T02:07:17;99582.00;;;21.60
45850;BMP180;10739;52.198;20.908;2023-09-19T02:09:43;99589.00;;;22.20
45850;BMP180;10739;52.198;20.908;2023-09-19T02:12:09;99583.00;;;21.60
45850;BMP180;10739;52.198;20.908;2023-09-19T02:14:35;99580.00;;;22.00
45850;BMP180;10739;52.198;20.908;2023-09-19T02:17:03;99581.00;;;22.00
45850;BMP180;10739;52.198;20.908;2023-09-19T02:19:33;99578.00;;;21.60
45850;BMP180;10739;52.198;20.908;2023-09-19T02:22:00;99574.00;;;22.00
45850;BMP180;10739;52.198;20.908;2023-09-19T02:24:29;99563.00;;;21.80
45850;BMP180;10739;52.198;20.908;2023-09-19T02:26:55;99562.00;;;22.10
45850;BMP180;10739;52.198;20.908;2023-09-19T02:29:21;99561.00;;;22.00
45850;BMP180;10739;52.198;20.908;2023-09-19T02:31:48;99549.00;;;22.10
45850;BMP180;10739;52.198;20.908;2023-09-19T02:34:14;99562.00;;;22.00
45850;BMP180;10739;52.198;20.908;2023-09-19T02:36:42;99561.00;;;21.30
45850;BMP180;10739;52.198;20.908;2023-09-19T02:39:10;99548.00;;;21.70
45850;BMP180;10739;52.198;20.908;2023-09-19T02:41:37;99551.00;;;21.80
45850;BMP180;10739;52.198;20.908;2023-09-19T02:44:03;99545.00;;;21.60
45850;BMP180;10739;52.198;20.908;2023-09-19T02:46:34;99553.00;;;21.60
45850;BMP180;10739;52.198;20.908;2023-09-19T02:49:03;99549.00;;;21.40
45850;BMP180;10739;52.198;20.908;2023-09-19T02:51:32;99550.00;;;21.50
45850;BMP180;10739;52.198;20.908;2023-09-19T02:54:02;99541.00;;;21.60
45850;BMP180;10739;52.198;20.908;2023-09-19T02:56:31;99531.00;;;21.50
45850;BMP180;10739;52.198;20.908;2023-09-19T02:58:58;99545.00;;;21.40
45850;BMP180;10739;52.198;20.908;2023-09-19T03:01:27;99532.00;;;21.10
45850;BMP180;10739;52.198;20.908;2023-09-19T03:03:54;99539.00;;;21.50
45850;BMP180;10739;52.198;20.908;2023-09-19T03:06:21;99529.00;;;21.50
45850;BMP180;10739;52.198;20.908;2023-09-19T03:08:48;99521.00;;;21.50
45850;BMP180;10739;52.198;20.908;2023-09-19T03:11:17;99529.00;;;21.40
45850;BMP180;10739;52.198;20.908;2023-09-19T03:13:54;99529.00;;;21.40
45850;BMP180;10739;52.198;20.908;2023-09-19T03:16:21;99519.00;;;21.80
45850;BMP180;10739;52.198;20.908;2023-09-19T03:18:51;99534.00;;;21.60
45850;BMP180;10739;52.198;20.908;2023-09-19T03:21:17;99528.00;;;21.50
45850;BMP180;10739;52.198;20.908;2023-09-19T03:23:45;99525.00;;;21.50
45850;BMP180;10739;52.198;20.908;2023-09-19T03:26:14;99526.00;;;21.50
45850;BMP180;10739;52.198;20.908;2023-09-19T03:28:42;99528.00;;;21.10
45850;BMP180;10739;52.198;20.908;2023-09-19T03:31:09;99522.00;;;21.00
45850;BMP180;10739;52.198;20.908;2023-09-19T03:33:36;99524.00;;;21.20
45850;BMP180;10739;52.198;20.908;2023-09-19T03:36:04;99524.00;;;21.30
45850;BMP180;10739;52.198;20.908;2023-09-19T03:38:32;99516.00;;;21.30
45850;BMP180;10739;52.198;20.908;2023-09-19T03:40:59;99515.00;;;21.40
45850;BMP180;10739;52.198;20.908;2023-09-19T03:43:25;99523.00;;;21.50
45850;BMP180;10739;52.198;20.908;2023-09-19T03:45:53;99521.00;;;21.30
45850;BMP180;10739;52.198;20.908;2023-09-19T03:48:20;99515.00;;;21.30
45850;BMP180;10739;52.198;20.908;2023-09-19T03:50:48;99514.00;;;21.10
45850;BMP180;10739;52.198;20.908;2023-09-19T03:53:14;99519.00;;;21.10
45850;BMP180;10739;52.198;20.908;2023-09-19T03:55:40;99521.00;;;21.30
45850;BMP180;10739;52.198;20.908;2023-09-19T03:58:06;99511.00;;;21.10
45850;BMP180;10739;52.198;20.908;2023-09-19T04:00:33;99507.00;;;21.20
45850;BMP180;10739;52.198;20.908;2023-09-19T04:03:00;99497.00;;;21.40
45850;BMP180;10739;52.198;20.908;2023-09-19T04:05:31;99489.00;;;21.50
45850;BMP180;10739;52.198;20.908;2023-09-19T04:07:58;99492.00;;;21.50
45850;BMP180;10739;52.198;20.908;2023-09-19T04:10:25;99500.00;;;21.30
45850;BMP180;10739;52.198;20.908;2023-09-19T04:12:55;99499.00;;;21.30
45850;BMP180;10739;52.198;20.908;2023-09-19T04:15:23;99493.00;;;21.40
45850;BMP180;10739;52.198;20.908;2023-09-19T04:17:50;99490.00;;;21.40
45850;BMP180;10739;52.198;20.908;2023-09-19T04:20:18;99490.00;;;21.40
45850;BMP180;10739;52.198;20.908;2023-09-19T04:22:49;99497.00;;;21.20
45850;BMP180;10739;52.198;20.908;2023-09-19T04:25:15;99481.00;;;21.10
45850;BMP180;10739;52.198;20.908;2023-09-19T04:27:43;99479.00;;;21.20
45850;BMP180;10739;52.198;20.908;2023-09-19T04:30:10;99481.00;;;20.60
45850;BMP180;10739;52.198;20.908;2023-09-19T04:32:38;99475.00;;;20.50
45850;BMP180;10739;52.198;20.908;2023-09-19T04:35:09;99473.00;;;21.00
45850;BMP180;10739;52.198;20.908;2023-09-19T04:37:38;99473.00;;;21.20
45850;BMP180;10739;52.198;20.908;2023-09-19T04:40:09;99472.00;;;21.40
45850;BMP180;10739;52.198;20.908;2023-09-19T04:42:43;99476.00;;;20.90
45850;BMP180;10739;52.198;20.908;2023-09-19T04:45:10;99474.00;;;20.80
45850;BMP180;10739;52.198;20.908;2023-09-19T04:47:37;99470.00;;;20.80
45850;BMP180;10739;52.198;20.908;2023-09-19T04:50:08;99474.00;;;20.90
45850;BMP180;10739;52.198;20.908;2023-09-19T04:52:41;99475.00;;;21.10
45850;BMP180;10739;52.198;20.908;2023-09-19T04:55:14;99468.00;;;21.10
45850;BMP180;10739;52.198;20.908;2023-09-19T04:57:44;99479.00;;;21.20
45850;BMP180;10739;52.198;20.908;2023-09-19T05:00:15;99467.00;;;21.20
45850;BMP180;10739;52.198;20.908;2023-09-19T05:02:48;99468.00;;;20.90
45850;BMP180;10739;52.198;20.908;2023-09-19T05:05:15;99473.00;;;21.10
45850;BMP180;10739;52.198;20.908;2023-09-19T05:07:46;99472.00;;;21.30
45850;BMP180;10739;52.198;20.908;2023-09-19T05:10:15;99480.00;;;20.90
45850;BMP180;10739;52.198;20.908;2023-09-19T05:12:45;99466.00;;;21.50
45850;BMP180;10739;52.198;20.908;2023-09-19T05:15:14;99470.00;;;21.00
45850;BMP180;10739;52.198;20.908;2023-09-19T05:17:52;99471.00;;;21.40
45850;BMP180;10739;52.198;20.908;2023-09-19T05:20:21;99458.00;;;21.50
45850;BMP180;10739;52.198;20.908;2023-09-19T05:23:06;99462.00;;;21.00
45850;BMP180;10739;52.198;20.908;2023-09-19T05:25:40;99470.00;;;21.30
45850;BMP180;10739;52.198;20.908;2023-09-19T05:28:08;99466.00;;;21.30
45850;BMP180;10739;52.198;20.908;2023-09-19T05:30:36;99460.00;;;21.20
45850;BMP180;10739;52.198;20.908;2023-09-19T05:33:05;99464.00;;;21.50
45850;BMP180;10739;52.198;20.908;2023-09-19T05:35:32;99468.00;;;21.30
45850;BMP180;10739;52.198;20.908;2023-09-19T05:37:59;99469.00;;;21.20
45850;BMP180;10739;52.198;20.908;2023-09-19T05:40:26;99458.00;;;21.50
45850;BMP180;10739;52.198;20.908;2023-09-19T05:42:53;99463.00;;;21.40
45850;BMP180;10739;52.198;20.908;2023-09-19T05:45:19;99450.00;;;21.20
45850;BMP180;10739;52.198;20.908;2023-09-19T05:47:49;99450.00;;;21.60
45850;BMP180;10739;52.198;20.908;2023-09-19T05:50:16;99452.00;;;21.80
45850;BMP180;10739;52.198;20.908;2023-09-19T05:52:42;99462.00;;;21.70
45850;BMP180;10739;52.198;20.908;2023-09-19T05:55:12;99454.00;;;21.40
45850;BMP180;10739;52.198;20.908;2023-09-19T05:57:38;99446.00;;;21.70
45850;BMP180;10739;52.198;20.908;2023-09-19T06:00:11;99453.00;;;21.90
45850;BMP180;10739;52.198;20.908;2023-09-19T06:02:37;99466.00;;;22.20
45850;BMP180;10739;52.198;20.908;2023-09-19T06:05:05;99469.00;;;22.30
45850;BMP180;10739;52.198;20.908;2023-09-19T06:07:35;99473.00;;;22.80
45850;BMP180;10739;52.198;20.908;2023-09-19T06:10:06;99481.00;;;23.00
45850;BMP180;10739;52.198;20.908;2023-09-19T06:12:41;99478.00;;;23.00
45850;BMP180;10739;52.198;20.908;2023-09-19T06:15:10;99489.00;;;23.10
45850;BMP180;10739;52.198;20.908;2023-09-19T06:17:46;99493.00;;;23.20
45850;BMP180;10739;52.198;20.908;2023-09-19T06:20:12;99487.00;;;23.60
45850;BMP180;10739;52.198;20.908;2023-09-19T06:22:42;99488.00;;;23.20
45850;BMP180;10739;52.198;20.908;2023-09-19T06:25:14;99485.00;;;23.50
45850;BMP180;10739;52.198;20.908;2023-09-19T06:27:48;99488.00;;;23.70
45850;BMP180;10739;52.198;20.908;2023-09-19T06:30:15;99489.00;;;22.70
45850;BMP180;10739;52.198;20.908;2023-09-19T06:32:42;99494.00;;;23.20
45850;BMP180;10739;52.198;20.908;2023-09-19T06:35:15;99485.00;;;23.00
45850;BMP180;10739;52.198;20.908;2023-09-19T06:37:43;99491.00;;;23.70
45850;BMP180;10739;52.198;20.908;2023-09-19T06:40:10;99493.00;;;23.70
45850;BMP180;10739;52.198;20.908;2023-09-19T06:42:45;99498.00;;;24.10
45850;BMP180;10739;52.198;20.908;2023-09-19T06:45:13;99495.00;;;24.50
45850;BMP180;10739;52.198;20.908;2023-09-19T06:47:48;99496.00;;;24.30
45850;BMP180;10739;52.198;20.908;2023-09-19T06:50:21;99490.00;;;24.60
45850;BMP180;10739;52.198;20.908;2023-09-19T06:52:53;99499.00;;;25.20
45850;BMP180;10739;52.198;20.908;2023-09-19T06:55:26;99499.00;;;25.40
45850;BMP180;10739;52.198;20.908;2023-09-19T06:57:56;99494.00;;;25.50
45850;BMP180;10739;52.198;20.908;2023-09-19T07:00:24;99493.00;;;25.30
45850;BMP180;10739;52.198;20.908;2023-09-19T07:03:03;99485.00;;;25.70
45850;BMP180;10739;52.198;20.908;2023-09-19T07:05:32;99496.00;;;26.10
45850;BMP180;10739;52.198;20.908;2023-09-19T07:08:02;99509.00;;;26.20
45850;BMP180;10739;52.198;20.908;2023-09-19T07:10:29;99503.00;;;26.00
45850;BMP180;10739;52.198;20.908;2023-09-19T07:13:00;99507.00;;;25.90
45850;BMP180;10739;52.198;20.908;2023-09-19T07:15:28;99505.00;;;25.70
45850;BMP180;10739;52.198;20.908;2023-09-19T07:17:55;99512.00;;;25.90
45850;BMP180;10739;52.198;20.908;2023-09-19T07:20:24;99515.00;;;26.30
45850;BMP180;10739;52.198;20.908;2023-09-19T07:22:53;99521.00;;;26.00
45850;BMP180;10739;52.198;20.908;2023-09-19T07:25:26;99521.00;;;25.60
45850;BMP180;10739;52.198;20.908;2023-09-19T07:27:55;99532.00;;;25.40
45850;BMP180;10739;52.198;20.908;2023-09-19T07:30:21;99529.00;;;25.50
45850;BMP180;10739;52.198;20.908;2023-09-19T07:32:48;99534.00;;;25.50
45850;BMP180;10739;52.198;20.908;2023-09-19T07:35:14;99542.00;;;25.40
45850;BMP180;10739;52.198;20.908;2023-09-19T07:37:41;99544.00;;;25.70
45850;BMP180;10739;52.198;20.908;2023-09-19T07:40:07;99543.00;;;25.90
45850;BMP180;10739;52.198;20.908;2023-09-19T07:42:35;99545.00;;;25.40
45850;BMP180;10739;52.198;20.908;2023-09-19T07:45:05;99548.00;;;25.60
45850;BMP180;10739;52.198;20.908;2023-09-19T07:47:31;99555.00;;;25.30
45850;BMP180;10739;52.198;20.908;2023-09-19T07:49:59;99560.00;;;25.10
45850;BMP180;10739;52.198;20.908;2023-09-19T07:52:28;99552.00;;;25.10
45850;BMP180;10739;52.198;20.908;2023-09-19T07:54:55;99549.00;;;24.60
45850;BMP180;10739;52.198;20.908;2023-09-19T07:57:23;99548.00;;;24.80
45850;BMP180;10739;52.198;20.908;2023-09-19T07:59:49;99544.00;;;24.80
45850;BMP180;10739;52.198;20.908;2023-09-19T08:02:16;99547.00;;;25.70
45850;BMP180;10739;52.198;20.908;2023-09-19T08:04:45;99563.00;;;25.50
45850;BMP180;10739;52.198;20.908;2023-09-19T08:07:13;99576.00;;;25.60
45850;BMP180;10739;52.198;20.908;2023-09-19T08:09:39;99571.00;;;25.20
45850;BMP180;10739;52.198;20.908;2023-09-19T08:12:07;99575.00;;;25.30
45850;BMP180;10739;52.198;20.908;2023-09-19T08:14:37;99581.00;;;25.10
45850;BMP180;10739;52.198;20.908;2023-09-19T08:17:07;99579.00;;;25.60
45850;BMP180;10739;52.198;20.908;2023-09-19T08:19:34;99575.00;;;25.40
45850;BMP180;10739;52.198;20.908;2023-09-19T08:22:01;99581.00;;;25.30
45850;BMP180;10739;52.198;20.908;2023-09-19T08:24:29;99587.00;;;24.70
45850;BMP180;10739;52.198;20.908;2023-09-19T08:26:57;99583.00;;;25.50
45850;BMP180;10739;52.198;20.908;2023-09-19T08:29:25;99582.00;;;25.50
45850;BMP180;10739;52.198;20.908;2023-09-19T08:31:57;99589.00;;;25.60
45850;BMP180;10739;52.198;20.908;2023-09-19T08:34:25;99585.00;;;25.70
45850;BMP180;10739;52.198;20.908;2023-09-19T08:36:55;99585.00;;;25.60
45850;BMP180;10739;52.198;20.908;2023-09-19T08:39:25;99583.00;;;25.80
45850;BMP180;10739;52.198;20.908;2023-09-19T08:41:59;99584.00;;;25.60
45850;BMP180;10739;52.198;20.908;2023-09-19T08:44:26;99580.00;;;25.30
45850;BMP180;10739;52.198;20.908;2023-09-19T08:47:32;99578.00;;;25.30
45850;BMP180;10739;52.198;20.908;2023-09-19T08:50:26;99569.00;;;24.80
45850;BMP180;10739;52.198;20.908;2023-09-19T08:52:56;99574.00;;;25.00
45850;BMP180;10739;52.198;20.908;2023-09-19T08:55:30;99574.00;;;24.70
45850;BMP180;10739;52.198;20.908;2023-09-19T08:58:04;99578.00;;;25.20
45850;BMP180;10739;52.198;20.908;2023-09-19T09:00:34;99571.00;;;24.60
45850;BMP180;10739;52.198;20.908;2023-09-19T09:03:03;99577.00;;;25.00
45850;BMP180;10739;52.198;20.908;2023-09-19T09:05:35;99581.00;;;25.00
45850;BMP180;10739;52.198;20.908;2023-09-19T09:08:05;99579.00;;;25.30
45850;BMP180;10739;52.198;20.908;2023-09-19T09:10:31;99583.00;;;25.50
45850;BMP180;10739;52.198;20.908;2023-09-19T09:12:59;99598.00;;;25.20
45850;BMP180;10739;52.198;20.908;2023-09-19T09:15:25;99606.00;;;25.40
45850;BMP180;10739;52.198;20.908;2023-09-19T09:17:52;99613.00;;;24.90
45850;BMP180;10739;52.198;20.908;2023-09-19T09:20:22;99620.00;;;24.10
45850;BMP180;10739;52.198;20.908;2023-09-19T09:22:53;99623.00;;;23.70
45850;BMP180;10739;52.198;20.908;2023-09-19T09:25:21;99591.00;;;23.80
45850;BMP180;10739;52.198;20.908;2023-09-19T09:28:02;99602.00;;;23.80
45850;BMP180;10739;52.198;20.908;2023-09-19T09:30:36;99623.00;;;23.70
45850;BMP180;10739;52.198;20.908;2023-09-19T09:33:14;99620.00;;;23.50
45850;BMP180;10739;52.198;20.908;2023-09-19T09:35:57;99630.00;;;23.30
45850;BMP180;10739;52.198;20.908;2023-09-19T09:38:47;99635.00;;;23.30
45850;BMP180;10739;52.198;20.908;2023-09-19T09:41:16;99638.00;;;23.20
45850;BMP180;10739;52.198;20.908;2023-09-19T09:44:12;99648.00;;;23.30
45850;BMP180;10739;52.198;20.908;2023-09-19T09:46:43;99647.00;;;23.10
45850;BMP180;10739;52.198;20.908;2023-09-19T09:49:27;99648.00;;;22.90
45850;BMP180;10739;52.198;20.908;2023-09-19T09:52:07;99652.00;;;22.90
45850;BMP180;10739;52.198;20.908;2023-09-19T09:55:03;99649.00;;;22.70
45850;BMP180;10739;52.198;20.908;2023-09-19T09:57:33;99648.00;;;23.00
45850;BMP180;10739;52.198;20.908;2023-09-19T10:00:02;99651.00;;;23.20
45850;BMP180;10739;52.198;20.908;2023-09-19T10:02:54;99647.00;;;23.40
45850;BMP180;10739;52.198;20.908;2023-09-19T10:05:21;99656.00;;;23.40
45850;BMP180;10739;52.198;20.908;2023-09-19T10:07:55;99662.00;;;23.40
45850;BMP180;10739;52.198;20.908;2023-09-19T10:10:37;99660.00;;;22.70
45850;BMP180;10739;52.198;20.908;2023-09-19T10:13:28;99669.00;;;23.10
45850;BMP180;10739;52.198;20.908;2023-09-19T10:16:06;99662.00;;;23.00
45850;BMP180;10739;52.198;20.908;2023-09-19T10:18:36;99658.00;;;23.20
45850;BMP180;10739;52.198;20.908;2023-09-19T10:21:05;99667.00;;;23.50
45850;BMP180;10739;52.198;20.908;2023-09-19T10:23:34;99668.00;;;23.60
45850;BMP180;10739;52.198;20.908;2023-09-19T10:26:05;99666.00;;;23.60
45850;BMP180;10739;52.198;20.908;2023-09-19T10:28:33;99666.00;;;23.50
45850;BMP180;10739;52.198;20.908;2023-09-19T10:31:02;99674.00;;;23.50
45850;BMP180;10739;52.198;20.908;2023-09-19T10:33:36;99664.00;;;23.80
45850;BMP180;10739;52.198;20.908;2023-09-19T10:36:05;99655.00;;;23.80
45850;BMP180;10739;52.198;20.908;2023-09-19T10:38:35;99656.00;;;23.80
45850;BMP180;10739;52.198;20.908;2023-09-19T10:41:04;99659.00;;;23.70
45850;BMP180;10739;52.198;20.908;2023-09-19T10:43:33;99656.00;;;23.80
45850;BMP180;10739;52.198;20.908;2023-09-19T10:46:07;99653.00;;;23.90
45850;BMP180;10739;52.198;20.908;2023-09-19T10:48:34;99645.00;;;24.00
45850;BMP180;10739;52.198;20.908;2023-09-19T10:53:53;99662.00;;;24.00
45850;BMP180;10739;52.198;20.908;2023-09-19T10:56:44;99661.00;;;23.80
45850;BMP180;10739;52.198;20.908;2023-09-19T10:59:20;99673.00;;;23.60
45850;BMP180;10739;52.198;20.908;2023-09-19T11:01:49;99668.00;;;23.60
45850;BMP180;10739;52.198;20.908;2023-09-19T11:07:07;99665.00;;;23.40
45850;BMP180;10739;52.198;20.908;2023-09-19T11:09:54;99665.00;;;23.60
45850;BMP180;10739;52.198;20.908;2023-09-19T11:15:09;99677.00;;;23.60
45850;BMP180;10739;52.198;20.908;2023-09-19T11:17:42;99677.00;;;23.80
45850;BMP180;10739;52.198;20.908;2023-09-19T11:20:20;99673.00;;;23.90
45850;BMP180;10739;52.198;20.908;2023-09-19T11:25:42;99675.00;;;23.50
45850;BMP180;10739;52.198;20.908;2023-09-19T11:30:51;99682.00;;;23.30
45850;BMP180;10739;52.198;20.908;2023-09-19T11:33:30;99667.00;;;23.60
45850;BMP180;10739;52.198;20.908;2023-09-19T11:36:11;99674.00;;;23.70
45850;BMP180;10739;52.198;20.908;2023-09-19T11:46:27;99675.00;;;23.90
45850;BMP180;10739;52.198;20.908;2023-09-19T11:48:54;99681.00;;;23.60
45850;BMP180;10739;52.198;20.908;2023-09-19T11:51:24;99681.00;;;23.70
45850;BMP180;10739;52.198;20.908;2023-09-19T11:53:55;99686.00;;;24.30
45850;BMP180;10739;52.198;20.908;2023-09-19T11:56:24;99685.00;;;24.20
45850;BMP180;10739;52.198;20.908;2023-09-19T11:58:55;99691.00;;;24.10
45850;BMP180;10739;52.198;20.908;2023-09-19T12:01:32;99686.00;;;24.10
45850;BMP180;10739;52.198;20.908;2023-09-19T12:04:02;99693.00;;;24.40
45850;BMP180;10739;52.198;20.908;2023-09-19T12:06:31;99699.00;;;24.20
45850;BMP180;10739;52.198;20.908;2023-09-19T12:09:02;99695.00;;;24.10
45850;BMP180;10739;52.198;20.908;2023-09-19T12:11:33;99693.00;;;24.20
45850;BMP180;10739;52.198;20.908;2023-09-19T12:14:06;99700.00;;;24.00
45850;BMP180;10739;52.198;20.908;2023-09-19T12:16:32;99700.00;;;24.00
45850;BMP180;10739;52.198;20.908;2023-09-19T12:19:19;99702.00;;;24.30
45850;BMP180;10739;52.198;20.908;2023-09-19T12:22:03;99702.00;;;24.30
45850;BMP180;10739;52.198;20.908;2023-09-19T12:24:33;99706.00;;;24.20
45850;BMP180;10739;52.198;20.908;2023-09-19T12:27:06;99702.00;;;24.30
45850;BMP180;10739;52.198;20.908;2023-09-19T12:29:46;99707.00;;;24.30
45850;BMP180;10739;52.198;20.908;2023-09-19T12:32:15;99711.00;;;24.00
45850;BMP180;10739;52.198;20.908;2023-09-19T12:34:52;99705.00;;;24.20
45850;BMP180;10739;52.198;20.908;2023-09-19T12:37:18;99710.00;;;24.40
45850;BMP180;10739;52.198;20.908;2023-09-19T12:39:52;99713.00;;;24.40
45850;BMP180;10739;52.198;20.908;2023-09-19T12:42:26;99705.00;;;24.20
45850;BMP180;10739;52.198;20.908;2023-09-19T12:44:58;99714.00;;;24.10
45850;BMP180;10739;52.198;20.908;2023-09-19T12:47:28;99715.00;;;24.50
45850;BMP180;10739;52.198;20.908;2023-09-19T12:52:37;99710.00;;;24.20
45850;BMP180;10739;52.198;20.908;2023-09-19T12:55:05;99712.00;;;24.40
45850;BMP180;10739;52.198;20.908;2023-09-19T12:57:34;99708.00;;;24.50
45850;BMP180;10739;52.198;20.908;2023-09-19T13:00:05;99705.00;;;24.60
45850;BMP180;10739;52.198;20.908;2023-09-19T13:02:32;99707.00;;;24.30
45850;BMP180;10739;52.198;20.908;2023-09-19T13:04:59;99712.00;;;24.20
45850;BMP180;10739;52.198;20.908;2023-09-19T13:07:46;99703.00;;;24.30
45850;BMP180;10739;52.198;20.908;2023-09-19T13:10:13;99711.00;;;24.40
45850;BMP180;10739;52.198;20.908;2023-09-19T13:12:43;99699.00;;;24.30
45850;BMP180;10739;52.198;20.908;2023-09-19T13:15:15;99709.00;;;24.30
45850;BMP180;10739;52.198;20.908;2023-09-19T13:17:50;99707.00;;;24.30
45850;BMP180;10739;52.198;20.908;2023-09-19T13:20:26;99706.00;;;24.40
45850;BMP180;10739;52.198;20.908;2023-09-19T13:22:58;99711.00;;;24.40
45850;BMP180;10739;52.198;20.908;2023-09-19T13:25:26;99703.00;;;24.30
45850;BMP180;10739;52.198;20.908;2023-09-19T13:27:57;99715.00;;;24.40
45850;BMP180;10739;52.198;20.908;2023-09-19T13:30:26;99705.00;;;24.30
45850;BMP180;10739;52.198;20.908;2023-09-19T13:33:10;99712.00;;;24.00
45850;BMP180;10739;52.198;20.908;2023-09-19T13:35:38;99708.00;;;24.20
45850;BMP180;10739;52.198;20.908;2023-09-19T13:38:07;99714.00;;;24.40
45850;BMP180;10739;52.198;20.908;2023-09-19T13:40:38;99716.00;;;24.50
45850;BMP180;10739;52.198;20.908;2023-09-19T13:43:05;99714.00;;;24.20
45850;BMP180;10739;52.198;20.908;2023-09-19T13:45:32;99720.00;;;24.30
45850;BMP180;10739;52.198;20.908;2023-09-19T13:47:59;99719.00;;;24.50
45850;BMP180;10739;52.198;20.908;2023-09-19T13:50:25;99718.00;;;24.50
45850;BMP180;10739;52.198;20.908;2023-09-19T13:52:52;99721.00;;;24.80
45850;BMP180;10739;52.198;20.908;2023-09-19T13:55:20;99721.00;;;24.70
45850;BMP180;10739;52.198;20.908;2023-09-19T13:57:50;99713.00;;;24.30
45850;BMP180;10739;52.198;20.908;2023-09-19T14:00:19;99716.00;;;24.60
45850;BMP180;10739;52.198;20.908;2023-09-19T14:02:46;99715.00;;;24.40
45850;BMP180;10739;52.198;20.908;2023-09-19T14:05:16;99710.00;;;24.20
45850;BMP180;10739;52.198;20.908;2023-09-19T14:07:49;99717.00;;;24.30
45850;BMP180;10739;52.198;20.908;2023-09-19T14:10:16;99727.00;;;24.00
45850;BMP180;10739;52.198;20.908;2023-09-19T14:12:46;99728.00;;;23.60
45850;BMP180;10739;52.198;20.908;2023-09-19T14:15:12;99727.00;;;23.40
45850;BMP180;10739;52.198;20.908;2023-09-19T14:17:41;99730.00;;;23.20
45850;BMP180;10739;52.198;20.908;2023-09-19T14:20:08;99726.00;;;23.50
45850;BMP180;10739;52.198;20.908;2023-09-19T14:22:37;99724.00;;;23.80
45850;BMP180;10739;52.198;20.908;2023-09-19T14:25:05;99731.00;;;23.90
45850;BMP180;10739;52.198;20.908;2023-09-19T14:27:35;99739.00;;;24.10
45850;BMP180;10739;52.198;20.908;2023-09-19T14:30:01;99728.00;;;24.10
45850;BMP180;10739;52.198;20.908;2023-09-19T14:32:28;99721.00;;;24.30
45850;BMP180;10739;52.198;20.908;2023-09-19T14:34:55;99729.00;;;24.20
45850;BMP180;10739;52.198;20.908;2023-09-19T14:37:21;99738.00;;;23.90
45850;BMP180;10739;52.198;20.908;2023-09-19T14:39:47;99732.00;;;24.00
45850;BMP180;10739;52.198;20.908;2023-09-19T14:42:14;99748.00;;;23.90
45850;BMP180;10739;52.198;20.908;2023-09-19T14:44:43;99736.00;;;24.10
45850;BMP180;10739;52.198;20.908;2023-09-19T14:47:10;99737.00;;;24.30
45850;BMP180;10739;52.198;20.908;2023-09-19T14:49:39;99734.00;;;24.40
45850;BMP180;10739;52.198;20.908;2023-09-19T14:52:11;99741.00;;;24.30
45850;BMP180;10739;52.198;20.908;2023-09-19T14:54:38;99744.00;;;24.40
45850;BMP180;10739;52.198;20.908;2023-09-19T14:57:07;99745.00;;;24.20
45850;BMP180;10739;52.198;20.908;2023-09-19T14:59:35;99741.00;;;24.40